APH weather

Public forecast

Using degrees Fahrenheit for public forecast. Weather courtesy of forecast.io.

Closest aviation weather report (METAR) to A P Hill AAF (Fort A P Hill) Airport

Closest report is Shannon Airport, 13.4 nm (24.8 km) NNW. Retrieved 2020/08/14 04:15 UTC (0 seconds ago):

KEZF 140415Z AUTO 00000KT 10SM BKN017 BKN027 OVC033 25/24 A3000 RMK AO2 T02470242

Closest aviation forecast (TAF) to A P Hill AAF (Fort A P Hill) Airport

Forecast is more than 12 hours old.

Closest forecast is Quantico MCAF /Turner field, 26.0 nm (48.1 km) N. Retrieved 2016/02/08 15:59 UTC (5 years ago):

TAF COR KNYG 081500Z 0815/0915 VRB06KT 9999 FEW080 SCT180 620209 621105 540009 540909 QNH2970INS BECMG 0822/0823 VRB06KT 9000 -RA FEW030 SCT080 BKN120 620209 621105 540009 540909 QNH2952INS BECMG 0905/0907 VRB06KT 8000 RASN 600000 500000 BKN020 OVC030 500000 QNH2947INS T07/0820Z T00/0911Z COR 1553